createdAt,value
2018-09-19T00:00:25.041Z,10.30
2018-09-19T00:01:56.615Z,9.60
2018-09-19T00:04:59.860Z,10.00
2018-09-19T00:06:31.345Z,10.10
2018-09-19T00:08:02.906Z,9.30
2018-09-19T00:09:34.486Z,10.10
2018-09-19T00:11:06.152Z,11.00
2018-09-19T00:12:37.625Z,10.30
2018-09-19T00:14:09.206Z,10.60
2018-09-19T00:17:12.346Z,10.30
2018-09-19T00:18:43.917Z,10.60
2018-09-19T00:20:15.580Z,9.70
2018-09-19T00:21:47.393Z,10.20
2018-09-19T00:23:18.636Z,10.40
2018-09-19T00:24:50.213Z,10.00
2018-09-19T00:26:21.784Z,9.80
2018-09-19T00:27:53.356Z,9.40
2018-09-19T00:29:25.832Z,9.30
2018-09-19T00:30:57.033Z,9.60
2018-09-19T00:32:28.076Z,9.40
2018-09-19T00:33:59.651Z,9.90
2018-09-19T00:35:31.321Z,10.80
2018-09-19T00:37:02.797Z,9.30
2018-09-19T00:38:34.366Z,9.60
2018-09-19T00:40:05.942Z,10.40
2018-09-19T00:41:37.513Z,10.40
2018-09-19T00:43:09.089Z,10.00
2018-09-19T00:44:40.658Z,9.70
2018-09-19T00:46:12.232Z,9.50
2018-09-19T00:47:44.210Z,9.20
2018-09-19T00:49:15.391Z,9.70
2018-09-19T00:50:46.950Z,10.10
2018-09-19T00:52:18.524Z,9.40
2018-09-19T00:53:50.096Z,10.20
2018-09-19T00:55:21.674Z,9.20
2018-09-19T00:56:53.448Z,10.60
2018-09-19T00:58:24.822Z,10.30
2018-09-19T00:59:56.389Z,9.90
2018-09-19T01:01:27.964Z,9.30
2018-09-19T01:02:59.542Z,9.80
2018-09-19T01:06:02.931Z,10.50
2018-09-19T01:07:34.256Z,9.80
2018-09-19T01:09:05.825Z,9.00
2018-09-19T01:10:37.398Z,9.20
2018-09-19T01:12:09.272Z,9.80
2018-09-19T01:15:12.116Z,10.40
2018-09-19T01:16:43.690Z,9.60
2018-09-19T01:18:15.263Z,9.60
2018-09-19T01:19:47.353Z,10.00
2018-09-19T01:21:18.408Z,9.20
2018-09-19T01:22:49.981Z,10.30
2018-09-19T01:24:21.653Z,10.10
2018-09-19T01:25:53.128Z,10.00
2018-09-19T01:27:24.698Z,10.10
2018-09-19T01:28:56.272Z,10.50
2018-09-19T01:30:27.845Z,10.20
2018-09-19T01:31:59.417Z,10.00
2018-09-19T01:33:30.990Z,9.90
2018-09-19T01:35:02.562Z,10.60
2018-09-19T01:36:34.135Z,10.30
2018-09-19T01:38:05.708Z,10.00
2018-09-19T01:39:37.282Z,11.10
2018-09-19T01:41:08.853Z,10.00
2018-09-19T01:42:40.526Z,10.50
2018-09-19T01:44:11.998Z,10.30
2018-09-19T01:45:43.575Z,10.70
2018-09-19T01:47:15.144Z,10.00
2018-09-19T01:48:46.718Z,10.20
2018-09-19T01:50:18.292Z,10.30
2018-09-19T01:51:49.864Z,10.90
2018-09-19T01:53:21.465Z,10.40
2018-09-19T01:54:53.014Z,10.30
2018-09-19T01:56:24.580Z,10.20
2018-09-19T01:57:56.156Z,10.50
2018-09-19T01:59:27.726Z,11.60
2018-09-19T02:00:59.418Z,11.70
2018-09-19T02:02:30.871Z,13.10
2018-09-19T02:04:02.448Z,13.90
2018-09-19T02:05:34.023Z,14.70
2018-09-19T02:07:05.755Z,14.50
2018-09-19T02:08:37.165Z,15.50
2018-09-19T02:10:08.735Z,14.20
2018-09-19T02:11:40.315Z,15.00
2018-09-19T02:13:11.880Z,13.90
2018-09-19T02:14:43.472Z,15.20
2018-09-19T02:16:15.027Z,15.00
2018-09-19T02:17:46.598Z,14.80
2018-09-19T02:19:18.273Z,14.70
2018-09-19T02:20:49.744Z,16.30
2018-09-19T02:22:21.332Z,16.20
2018-09-19T02:23:52.890Z,15.30
2018-09-19T02:25:24.467Z,15.10
2018-09-19T02:26:56.546Z,17.70
2018-09-19T02:28:27.652Z,15.30
2018-09-19T02:29:59.188Z,15.60
2018-09-19T02:31:30.751Z,15.30
2018-09-19T02:33:02.335Z,17.20
2018-09-19T02:34:33.895Z,17.90
2018-09-19T02:36:05.487Z,15.80
2018-09-19T02:37:37.249Z,17.10
2018-09-19T02:39:08.616Z,18.00
2018-09-19T02:40:40.188Z,18.50
2018-09-19T02:42:11.797Z,16.90
2018-09-19T02:43:43.871Z,17.50
2018-09-19T02:45:14.905Z,17.90
2018-09-19T02:46:46.478Z,19.50
2018-09-19T02:48:18.049Z,18.80
2018-09-19T02:49:49.625Z,18.30
2018-09-19T02:51:21.210Z,19.00
2018-09-19T02:52:53.070Z,19.30
2018-09-19T02:54:24.353Z,19.00
2018-09-19T02:55:56.310Z,17.10
2018-09-19T02:57:27.482Z,16.70
2018-09-19T02:58:59.055Z,18.80
2018-09-19T03:00:30.626Z,18.20
2018-09-19T03:02:02.203Z,19.60
2018-09-19T03:03:33.833Z,19.70
2018-09-19T03:05:05.345Z,20.60
2018-09-19T03:06:36.927Z,19.00
2018-09-19T03:08:08.590Z,20.10
2018-09-19T03:11:11.634Z,18.50
2018-09-19T03:12:43.208Z,19.90
2018-09-19T03:14:15.237Z,17.90
2018-09-19T03:15:46.653Z,18.90
2018-09-19T03:17:18.028Z,17.80
2018-09-19T03:18:49.494Z,17.30
2018-09-19T03:20:21.086Z,20.40
2018-09-19T03:21:52.639Z,17.50
2018-09-19T03:23:24.210Z,18.30
2018-09-19T03:26:27.659Z,20.10
2018-09-19T03:27:58.928Z,21.20
2018-09-19T03:29:30.499Z,20.30
2018-09-19T03:31:02.069Z,20.00
2018-09-19T03:32:33.745Z,20.60
2018-09-19T03:34:05.259Z,20.90
2018-09-19T03:35:36.786Z,22.00
2018-09-19T03:37:08.360Z,22.10
2018-09-19T03:38:40.030Z,20.80
2018-09-19T03:40:11.502Z,23.10
2018-09-19T03:41:43.074Z,22.40
2018-09-19T03:43:14.650Z,20.40
2018-09-19T03:44:46.218Z,21.00
2018-09-19T03:46:17.796Z,20.80
2018-09-19T03:47:49.363Z,22.70
2018-09-19T03:49:20.932Z,22.20
2018-09-19T03:52:24.177Z,21.70
2018-09-19T03:53:55.651Z,21.00
2018-09-19T03:55:27.221Z,22.30
2018-09-19T03:56:58.794Z,20.30
2018-09-19T03:58:30.666Z,24.40
2018-09-19T04:00:01.939Z,21.40
2018-09-19T04:01:33.511Z,22.50
2018-09-19T04:03:05.083Z,20.10
2018-09-19T04:04:36.656Z,23.50
2018-09-19T04:06:08.226Z,19.00
2018-09-19T04:07:39.800Z,21.70
2018-09-19T04:09:11.375Z,21.90
2018-09-19T04:10:43.145Z,22.40
2018-09-19T04:12:14.516Z,23.70
2018-09-19T04:13:46.092Z,23.00
2018-09-19T04:15:17.668Z,23.40
2018-09-19T04:16:49.233Z,22.20
2018-09-19T04:18:20.802Z,25.30
2018-09-19T04:19:52.375Z,23.40
2018-09-19T04:21:23.946Z,18.70
2018-09-19T04:22:55.519Z,21.50
2018-09-19T04:24:27.090Z,23.50
2018-09-19T04:25:58.662Z,18.80
2018-09-19T04:27:30.234Z,25.00
2018-09-19T04:29:01.907Z,23.30
2018-09-19T04:30:33.378Z,27.20
2018-09-19T04:32:04.968Z,20.00
2018-09-19T04:33:36.577Z,17.90
2018-09-19T04:35:08.100Z,23.50
2018-09-19T04:36:39.666Z,23.20
2018-09-19T04:38:11.237Z,24.00
2018-09-19T04:39:42.814Z,18.90
2018-09-19T04:41:14.484Z,28.90
2018-09-19T04:42:45.957Z,23.00
2018-09-19T04:44:17.524Z,19.90
2018-09-19T04:45:49.105Z,23.70
2018-09-19T04:47:20.803Z,20.70
2018-09-19T04:50:23.817Z,22.50
2018-09-19T04:51:55.387Z,18.80
2018-09-19T04:53:26.957Z,16.80
2018-09-19T04:54:58.536Z,22.80
2018-09-19T04:56:30.102Z,28.30
2018-09-19T04:58:01.672Z,26.80
2018-09-19T04:59:33.543Z,27.70
2018-09-19T05:01:04.815Z,27.30
2018-09-19T05:02:36.387Z,26.80
2018-09-19T05:04:07.968Z,21.60
2018-09-19T05:05:39.643Z,22.40
2018-09-19T05:07:11.155Z,21.40
2018-09-19T05:08:42.673Z,26.80
2018-09-19T05:10:14.251Z,25.30
2018-09-19T05:11:45.919Z,19.50
2018-09-19T05:13:17.387Z,24.70
2018-09-19T05:14:48.977Z,25.70
2018-09-19T05:16:20.530Z,24.80
2018-09-19T05:17:52.103Z,19.30
2018-09-19T05:19:23.674Z,18.60
2018-09-19T05:20:55.245Z,24.60
2018-09-19T05:22:26.818Z,19.60
2018-09-19T05:23:58.489Z,29.10
2018-09-19T05:25:29.962Z,24.80
2018-09-19T05:27:01.532Z,24.10
2018-09-19T05:28:33.104Z,25.60
2018-09-19T05:30:04.976Z,25.80
2018-09-19T05:31:36.255Z,25.40
2018-09-19T05:33:07.821Z,24.10
2018-09-19T05:34:39.390Z,24.90
2018-09-19T05:36:10.963Z,24.80
2018-09-19T05:39:14.104Z,24.50
2018-09-19T05:40:45.678Z,26.10
2018-09-19T05:42:17.499Z,23.00
2018-09-19T05:43:48.819Z,24.20
2018-09-19T05:45:20.391Z,23.60
2018-09-19T05:46:51.964Z,22.70
2018-09-19T05:48:23.834Z,25.30
2018-09-19T05:49:55.111Z,23.40
2018-09-19T05:51:26.714Z,20.40
2018-09-19T05:52:58.253Z,25.10
2018-09-19T05:54:29.847Z,20.10
2018-09-19T05:56:01.393Z,23.50
2018-09-19T05:57:32.964Z,24.10
2018-09-19T05:59:04.535Z,20.80
2018-09-19T06:00:36.507Z,19.90
2018-09-19T06:02:07.677Z,22.90
2018-09-19T06:03:39.249Z,26.30
2018-09-19T06:05:10.908Z,22.60
2018-09-19T06:06:42.391Z,21.90
2018-09-19T06:08:13.962Z,21.80
2018-09-19T06:09:45.535Z,22.70
2018-09-19T06:11:17.112Z,22.50
2018-09-19T06:12:48.821Z,23.00
2018-09-19T06:14:20.248Z,23.10
2018-09-19T06:15:51.875Z,23.80
2018-09-19T06:17:23.397Z,22.40
2018-09-19T06:18:55.667Z,21.00
2018-09-19T06:20:26.534Z,23.00
2018-09-19T06:21:58.105Z,21.90
2018-09-19T06:23:29.677Z,23.90
2018-09-19T06:25:01.248Z,24.60
2018-09-19T06:26:32.818Z,22.80
2018-09-19T06:28:04.390Z,22.40
2018-09-19T06:29:35.961Z,21.20
2018-09-19T06:31:07.540Z,21.40
2018-09-19T06:32:39.105Z,20.40
2018-09-19T06:34:10.675Z,19.60
2018-09-19T06:35:42.246Z,19.50
2018-09-19T06:37:13.924Z,18.40
2018-09-19T06:38:45.389Z,18.30
2018-09-19T06:40:16.993Z,18.20
2018-09-19T06:41:48.531Z,17.80
2018-09-19T06:43:20.203Z,18.10
2018-09-19T06:44:51.676Z,18.60
2018-09-19T06:46:23.249Z,16.30
2018-09-19T06:47:54.815Z,16.80
2018-09-19T06:49:26.688Z,13.60
2018-09-19T06:50:57.958Z,15.10
2018-09-19T06:52:29.631Z,14.40
2018-09-19T06:54:01.100Z,15.30
2018-09-19T06:55:32.772Z,15.00
2018-09-19T06:57:04.243Z,14.20
2018-09-19T06:58:35.817Z,15.70
2018-09-19T07:00:07.387Z,14.80
2018-09-19T07:01:38.959Z,15.20
2018-09-19T07:04:42.103Z,15.80
2018-09-19T07:06:13.671Z,15.70
2018-09-19T07:07:45.547Z,15.30
2018-09-19T07:09:16.814Z,14.40
2018-09-19T07:10:48.387Z,15.10
2018-09-19T07:12:19.989Z,14.40
2018-09-19T07:13:51.627Z,16.20
2018-09-19T07:15:23.100Z,14.70
2018-09-19T07:16:54.671Z,16.20
2018-09-19T07:18:26.241Z,16.60
2018-09-19T07:19:58.119Z,16.10
2018-09-19T07:21:29.384Z,15.90
2018-09-19T07:23:00.960Z,16.10
2018-09-19T07:24:32.526Z,15.00
2018-09-19T07:26:04.100Z,15.80
2018-09-19T07:27:35.675Z,16.10
2018-09-19T07:29:07.243Z,17.00
2018-09-19T07:30:38.816Z,16.50
2018-09-19T07:32:10.483Z,17.80
2018-09-19T07:33:41.955Z,15.50
2018-09-19T07:35:13.526Z,16.90
2018-09-19T07:36:45.097Z,17.50
2018-09-19T07:38:16.669Z,16.90
2018-09-19T07:39:48.245Z,16.30
2018-09-19T07:41:19.819Z,16.90
2018-09-19T07:42:51.383Z,17.10
2018-09-19T07:44:23.055Z,16.20
2018-09-19T07:45:54.525Z,15.70
2018-09-19T07:47:26.096Z,17.10
2018-09-19T07:48:57.668Z,16.40
2018-09-19T07:50:29.661Z,16.60
2018-09-19T07:52:00.812Z,16.10
2018-09-19T07:53:32.386Z,16.60
2018-09-19T07:55:03.955Z,16.30
2018-09-19T07:56:35.525Z,16.80
2018-09-19T07:58:07.111Z,16.50
2018-09-19T07:59:38.667Z,16.10
2018-09-19T08:01:10.314Z,14.90
2018-09-19T08:02:41.811Z,15.30
2018-09-19T08:04:13.384Z,15.80
2018-09-19T08:05:44.954Z,15.40
2018-09-19T08:07:16.523Z,16.10
2018-09-19T08:08:48.245Z,15.30
2018-09-19T08:10:19.668Z,16.40
2018-09-19T08:11:51.258Z,16.30
2018-09-19T08:13:22.810Z,16.80
2018-09-19T08:14:54.535Z,16.00
2018-09-19T08:16:25.952Z,16.60
2018-09-19T08:17:57.523Z,14.70
2018-09-19T08:19:29.098Z,15.90
2018-09-19T08:21:00.967Z,16.20
2018-09-19T08:22:32.279Z,17.10
2018-09-19T08:24:03.810Z,15.20
2018-09-19T08:25:35.380Z,16.50
2018-09-19T08:27:07.052Z,15.70
2018-09-19T08:28:38.523Z,15.00
2018-09-19T08:30:10.098Z,15.90
2018-09-19T08:31:41.674Z,16.50
2018-09-19T08:33:13.237Z,17.60
2018-09-19T08:34:44.809Z,15.60
2018-09-19T08:36:16.427Z,16.40
2018-09-19T08:37:47.950Z,17.00
2018-09-19T08:39:19.524Z,16.80
2018-09-19T08:40:51.093Z,18.80
2018-09-19T08:42:22.666Z,16.80
2018-09-19T08:43:54.254Z,19.50
2018-09-19T08:45:26.063Z,19.60
2018-09-19T08:46:57.410Z,16.80
2018-09-19T08:48:28.950Z,17.90
2018-09-19T08:50:00.593Z,16.60
2018-09-19T08:51:32.392Z,17.50
2018-09-19T08:53:03.673Z,18.40
2018-09-19T08:54:35.236Z,17.20
2018-09-19T08:56:06.805Z,20.20
2018-09-19T08:57:38.409Z,16.10
2018-09-19T08:59:10.179Z,17.80
2018-09-19T09:00:41.837Z,15.50
2018-09-19T09:02:13.099Z,15.60
2018-09-19T09:03:45.391Z,16.00
2018-09-19T09:05:16.586Z,15.20
2018-09-19T09:08:19.914Z,18.90
2018-09-19T09:09:50.944Z,18.10
2018-09-19T09:11:22.525Z,17.00
2018-09-19T09:14:25.899Z,21.20
2018-09-19T09:15:57.344Z,17.60
2018-09-19T09:17:28.800Z,19.30
2018-09-19T09:19:00.573Z,18.30
2018-09-19T09:20:32.036Z,20.50
2018-09-19T09:22:03.943Z,18.10
2018-09-19T09:23:35.086Z,18.40
2018-09-19T09:25:06.659Z,17.30
2018-09-19T09:26:38.262Z,15.50
2018-09-19T09:28:09.804Z,15.20
2018-09-19T09:29:41.433Z,17.00
2018-09-19T09:32:44.573Z,14.70
2018-09-19T09:34:16.156Z,14.40
2018-09-19T09:35:47.701Z,13.60
2018-09-19T09:37:19.257Z,17.50
2018-09-19T09:38:50.961Z,14.40
2018-09-19T09:40:23.063Z,14.90
2018-09-19T09:41:54.012Z,13.20
2018-09-19T09:43:25.897Z,12.70
2018-09-19T09:44:57.137Z,12.30
2018-09-19T09:46:28.785Z,11.40
2018-09-19T09:48:00.417Z,11.70
2018-09-19T09:49:31.934Z,9.40
2018-09-19T09:51:03.425Z,9.50
2018-09-19T09:52:34.983Z,10.50
2018-09-19T09:54:06.595Z,9.50
2018-09-19T09:57:09.761Z,8.80
2018-09-19T09:58:41.385Z,8.00
2018-09-19T10:00:13.008Z,7.40
2018-09-19T10:03:16.017Z,6.50
2018-09-19T10:04:48.001Z,6.50
2018-09-19T10:06:19.218Z,6.10
2018-09-19T10:07:50.944Z,5.90
2018-09-19T10:09:22.325Z,6.50
2018-09-19T10:12:25.675Z,5.40
2018-09-19T10:13:57.050Z,5.70
2018-09-19T10:15:28.829Z,4.90
2018-09-19T10:17:00.206Z,4.60
2018-09-19T10:18:32.284Z,4.70
2018-09-19T10:20:03.662Z,4.70
2018-09-19T10:23:06.717Z,5.40
2018-09-19T10:24:38.091Z,5.50
2018-09-19T10:26:09.667Z,5.20
2018-09-19T10:27:41.247Z,4.80
2018-09-19T10:29:12.831Z,4.50
2018-09-19T10:30:44.439Z,4.60
2018-09-19T10:32:15.981Z,5.20
2018-09-19T10:33:48.213Z,4.80
2018-09-19T10:35:19.168Z,4.80
2018-09-19T10:38:22.399Z,4.20
2018-09-19T10:42:57.335Z,4.60
2018-09-19T10:44:28.604Z,4.60
2018-09-19T10:46:00.491Z,4.30
2018-09-19T10:47:32.212Z,3.90
2018-09-19T10:49:03.364Z,3.90
2018-09-19T10:50:34.944Z,4.40
2018-09-19T10:52:06.709Z,3.50
2018-09-19T10:53:38.118Z,3.70
2018-09-19T10:56:41.714Z,3.60
2018-09-19T10:58:12.851Z,3.60
2018-09-19T10:59:44.435Z,3.80
2018-09-19T11:01:16.214Z,3.80
2018-09-19T11:02:47.604Z,4.10
2018-09-19T11:04:19.162Z,3.60
2018-09-19T11:05:51.012Z,3.80
2018-09-19T11:07:22.350Z,4.00
2018-09-19T11:08:54.122Z,4.00
2018-09-19T11:10:25.585Z,3.50
2018-09-19T11:11:57.231Z,3.60
2018-09-19T11:13:28.926Z,3.40
2018-09-19T11:15:00.486Z,3.00
2018-09-19T11:16:31.779Z,3.20
2018-09-19T11:18:03.433Z,3.30
2018-09-19T11:19:35.278Z,3.40
2018-09-19T11:21:06.772Z,3.40
2018-09-19T11:24:09.873Z,3.30
2018-09-19T11:27:12.855Z,2.90
2018-09-19T11:30:16.402Z,3.70
2018-09-19T11:31:47.822Z,4.10
2018-09-19T11:33:19.333Z,4.70
2018-09-19T11:34:50.841Z,4.00
2018-09-19T11:37:54.257Z,3.10
2018-09-19T11:39:25.597Z,3.60
2018-09-19T11:40:57.237Z,3.80
2018-09-19T11:42:28.713Z,3.00
2018-09-19T11:44:00.433Z,3.20
2018-09-19T11:45:32.546Z,3.70
2018-09-19T11:47:04.311Z,3.50
2018-09-19T11:48:34.979Z,3.20
2018-09-19T11:50:06.558Z,2.80
2018-09-19T11:51:38.446Z,3.10
2018-09-19T11:53:09.720Z,2.70
2018-09-19T11:57:44.467Z,3.20
2018-09-19T11:59:16.051Z,3.10
2018-09-19T12:00:47.662Z,3.20
2018-09-19T12:02:19.417Z,2.90
2018-09-19T12:03:50.904Z,2.90
2018-09-19T12:05:22.429Z,3.00
2018-09-19T12:06:54.171Z,3.50
2018-09-19T12:08:25.851Z,3.20
2018-09-19T12:09:58.279Z,3.00
2018-09-19T12:11:28.709Z,2.80
2018-09-19T12:13:00.312Z,2.90
2018-09-19T12:17:35.344Z,3.00
2018-09-19T12:19:06.624Z,3.20
2018-09-19T12:20:38.208Z,3.00
2018-09-19T12:22:09.791Z,3.20
2018-09-19T12:23:42.180Z,3.00
2018-09-19T12:25:13.260Z,2.90
2018-09-19T12:26:45.071Z,3.00
2018-09-19T12:28:16.124Z,2.70
2018-09-19T12:29:48.338Z,2.70
2018-09-19T12:31:19.289Z,3.40
2018-09-19T12:32:50.892Z,3.40
2018-09-19T12:34:22.456Z,3.10
2018-09-19T12:35:54.038Z,2.80
2018-09-19T12:38:57.713Z,3.20
2018-09-19T12:40:28.826Z,3.10
2018-09-19T12:42:00.374Z,3.00
2018-09-19T12:45:03.542Z,3.10
2018-09-19T12:46:35.132Z,3.30
2018-09-19T12:49:38.595Z,3.30
2018-09-19T12:52:41.743Z,3.20
2018-09-19T12:54:13.043Z,3.70
2018-09-19T12:55:44.630Z,3.10
2018-09-19T12:57:16.515Z,3.20
2018-09-19T13:00:19.383Z,3.80
2018-09-19T13:01:50.966Z,3.20
2018-09-19T13:03:22.547Z,3.50
2018-09-19T13:06:25.921Z,3.90
2018-09-19T13:07:57.399Z,4.00
2018-09-19T13:09:30.023Z,3.30
2018-09-19T13:11:00.554Z,3.30
2018-09-19T13:14:03.838Z,3.80
2018-09-19T13:15:35.220Z,3.80
2018-09-19T13:17:07.008Z,3.40
2018-09-19T13:18:38.605Z,3.80
2018-09-19T13:20:10.512Z,3.70
2018-09-19T13:21:41.572Z,4.00
2018-09-19T13:23:13.142Z,3.80
2018-09-19T13:24:44.729Z,3.70
2018-09-19T13:26:16.412Z,3.80
2018-09-19T13:29:19.542Z,3.40
2018-09-19T13:30:51.074Z,3.70
2018-09-19T13:32:22.954Z,3.10
2018-09-19T13:33:54.234Z,3.40
2018-09-19T13:36:57.707Z,4.10
2018-09-19T13:38:29.293Z,3.70
2018-09-19T13:41:32.482Z,3.90
2018-09-19T13:44:35.431Z,4.00
2018-09-19T13:46:07.229Z,3.80
2018-09-19T13:49:10.092Z,3.20
2018-09-19T13:50:41.672Z,3.40
2018-09-19T13:52:13.983Z,4.20
2018-09-19T13:53:44.834Z,3.90
2018-09-19T13:55:16.425Z,3.90
2018-09-19T13:58:19.895Z,3.80
2018-09-19T13:59:51.233Z,3.50
2018-09-19T14:01:23.363Z,3.90
2018-09-19T14:05:57.702Z,4.10
2018-09-19T14:07:29.298Z,3.80
2018-09-19T14:09:00.681Z,3.70
2018-09-19T14:10:32.273Z,3.80
2018-09-19T14:12:04.057Z,3.20
2018-09-19T14:13:35.435Z,3.60
2018-09-19T14:15:07.040Z,3.50
2018-09-19T14:16:38.683Z,3.60
2018-09-19T14:18:10.193Z,3.60
2018-09-19T14:19:41.846Z,3.50
2018-09-19T14:21:13.366Z,3.60
2018-09-19T14:22:44.953Z,3.60
2018-09-19T14:24:16.944Z,4.00
2018-09-19T14:28:52.436Z,3.60
2018-09-19T14:30:22.885Z,3.90
2018-09-19T14:31:54.532Z,4.20
2018-09-19T14:33:26.055Z,3.80
2018-09-19T14:34:57.694Z,3.50
2018-09-19T14:36:29.669Z,3.70
2018-09-19T14:38:00.812Z,3.70
2018-09-19T14:41:03.985Z,4.00
2018-09-19T14:42:35.720Z,4.60
2018-09-19T14:44:07.209Z,3.70
2018-09-19T14:45:38.740Z,4.00
2018-09-19T14:47:10.630Z,3.80
2018-09-19T14:48:41.983Z,4.10
2018-09-19T14:50:13.497Z,4.20
2018-09-19T14:51:45.098Z,4.10
2018-09-19T14:54:49.747Z,4.00
2018-09-19T14:56:19.840Z,3.70
2018-09-19T14:57:51.576Z,4.00
2018-09-19T14:59:23.233Z,3.40
2018-09-19T15:00:54.700Z,3.20
2018-09-19T15:02:26.719Z,3.40
2018-09-19T15:05:29.365Z,3.50
2018-09-19T15:07:00.950Z,3.50
2018-09-19T15:08:32.539Z,3.40
2018-09-19T15:10:04.328Z,3.00
2018-09-19T15:11:35.713Z,3.10
2018-09-19T15:14:38.890Z,2.90
2018-09-19T15:19:14.186Z,3.80
2018-09-19T15:20:45.534Z,3.30
2018-09-19T15:22:16.858Z,3.20
2018-09-19T15:25:20.010Z,3.60
2018-09-19T15:26:51.596Z,4.00
2018-09-19T15:28:23.249Z,3.20
2018-09-19T15:29:55.081Z,3.40
2018-09-19T15:31:26.563Z,3.80
2018-09-19T15:32:57.944Z,3.70
2018-09-19T15:34:29.808Z,3.80
2018-09-19T15:36:01.122Z,3.90
2018-09-19T15:37:32.806Z,3.90
2018-09-19T15:40:36.632Z,4.10
2018-09-19T15:42:07.459Z,3.70
2018-09-19T15:43:40.059Z,3.30
2018-09-19T15:45:10.630Z,3.40
2018-09-19T15:46:43.254Z,3.80
2018-09-19T15:48:14.784Z,3.80
2018-09-19T15:49:45.393Z,3.20
2018-09-19T15:51:17.104Z,3.60
2018-09-19T15:52:48.584Z,3.40
2018-09-19T15:54:20.154Z,3.50
2018-09-19T15:55:52.198Z,3.90
2018-09-19T15:57:23.576Z,3.50
2018-09-19T15:58:55.336Z,3.10
2018-09-19T16:00:26.813Z,3.40
2018-09-19T16:01:58.327Z,3.60
2018-09-19T16:03:29.683Z,3.50
2018-09-19T16:05:01.439Z,2.90
2018-09-19T16:06:33.220Z,3.90
2018-09-19T16:08:04.466Z,3.40
2018-09-19T16:09:36.093Z,3.60
2018-09-19T16:11:07.965Z,3.60
2018-09-19T16:12:39.446Z,3.40
2018-09-19T16:14:10.934Z,3.00
2018-09-19T16:15:42.401Z,3.00
2018-09-19T16:17:14.292Z,3.40
2018-09-19T16:18:45.576Z,3.00
2018-09-19T16:21:48.752Z,3.50
2018-09-19T16:23:20.349Z,3.20
2018-09-19T16:26:23.515Z,3.40
2018-09-19T16:27:55.156Z,3.00
2018-09-19T16:29:27.913Z,3.30
2018-09-19T16:32:30.188Z,2.90
2018-09-19T16:34:01.482Z,2.70
2018-09-19T16:35:33.146Z,3.30
2018-09-19T16:37:04.698Z,3.20
2018-09-19T16:38:36.247Z,3.10
2018-09-19T16:40:08.425Z,3.00
2018-09-19T16:41:39.931Z,2.90
2018-09-19T16:44:42.573Z,3.10
2018-09-19T16:46:14.484Z,3.30
2018-09-19T16:47:45.950Z,3.30
2018-09-19T16:49:17.339Z,3.70
2018-09-19T16:50:48.924Z,3.70
2018-09-19T16:52:20.597Z,3.50
2018-09-19T16:53:52.398Z,3.50
2018-09-19T16:56:55.580Z,3.30
2018-09-19T16:59:58.806Z,3.20
2018-09-19T17:01:30.087Z,3.30
2018-09-19T17:03:01.647Z,3.30
2018-09-19T17:04:33.203Z,3.60
2018-09-19T17:06:04.838Z,3.20
2018-09-19T17:07:36.491Z,3.70
2018-09-19T17:09:08.062Z,3.30
2018-09-19T17:10:39.939Z,3.30
2018-09-19T17:12:11.376Z,3.70
2018-09-19T17:15:14.331Z,3.30
2018-09-19T17:16:46.098Z,3.10
2018-09-19T17:18:17.483Z,3.10
2018-09-19T17:19:49.070Z,3.80
2018-09-19T17:21:20.962Z,3.00
2018-09-19T17:22:52.246Z,3.00
2018-09-19T17:24:23.832Z,3.30
2018-09-19T17:25:55.625Z,3.20
2018-09-19T17:27:27.213Z,3.50
2018-09-19T17:28:58.906Z,3.10
2018-09-19T17:32:02.106Z,3.70
2018-09-19T17:36:36.582Z,3.60
2018-09-19T17:38:08.370Z,3.10
2018-09-19T17:39:39.716Z,3.70
2018-09-19T17:42:43.008Z,3.90
2018-09-19T17:45:46.948Z,3.50
2018-09-19T17:47:18.051Z,3.50
2018-09-19T17:48:50.173Z,3.40
2018-09-19T17:50:20.819Z,3.50
2018-09-19T17:51:52.686Z,3.70
2018-09-19T17:53:24.292Z,3.60
2018-09-19T17:54:55.861Z,3.80
2018-09-19T17:56:27.376Z,3.60
2018-09-19T17:57:59.120Z,3.90
2018-09-19T18:01:01.878Z,4.20
2018-09-19T18:02:33.486Z,4.20
2018-09-19T18:04:05.078Z,4.10
2018-09-19T18:05:37.033Z,4.20
2018-09-19T18:07:10.182Z,4.10
2018-09-19T18:08:40.050Z,3.90
2018-09-19T18:10:11.877Z,4.20
2018-09-19T18:11:42.959Z,4.00
2018-09-19T18:13:14.566Z,3.90
2018-09-19T18:14:46.639Z,4.60
2018-09-19T18:16:17.961Z,3.60
2018-09-19T18:17:49.347Z,3.90
2018-09-19T18:19:21.170Z,3.30
2018-09-19T18:20:52.680Z,3.80
2018-09-19T18:22:24.779Z,3.50
2018-09-19T18:23:55.721Z,3.10
2018-09-19T18:25:27.236Z,3.50
2018-09-19T18:26:58.799Z,3.70
2018-09-19T18:31:33.741Z,3.50
2018-09-19T18:33:05.132Z,3.40
2018-09-19T18:34:36.777Z,3.50
2018-09-19T18:36:08.436Z,3.30
2018-09-19T18:37:39.911Z,3.10
2018-09-19T18:39:13.431Z,3.30
2018-09-19T18:40:43.232Z,3.70
2018-09-19T18:42:15.035Z,3.80
2018-09-19T18:43:47.182Z,3.60
2018-09-19T18:45:18.826Z,3.50
2018-09-19T18:46:49.687Z,3.50
2018-09-19T18:48:20.977Z,2.80
2018-09-19T18:51:24.283Z,3.20
2018-09-19T18:52:56.464Z,3.00
2018-09-19T18:54:27.380Z,2.70
2018-09-19T18:55:59.140Z,2.80
2018-09-19T18:57:31.016Z,3.60
2018-09-19T18:59:02.510Z,3.60
2018-09-19T19:02:05.339Z,2.80
2018-09-19T19:03:37.536Z,3.30
2018-09-19T19:06:40.039Z,3.40
2018-09-19T19:08:11.830Z,3.60
2018-09-19T19:11:15.257Z,3.20
2018-09-19T19:12:46.410Z,3.20
2018-09-19T19:14:18.358Z,3.40
2018-09-19T19:15:49.493Z,3.10
2018-09-19T19:17:21.248Z,3.20
2018-09-19T19:18:52.821Z,3.30
2018-09-19T19:20:24.313Z,3.20
2018-09-19T19:23:27.417Z,3.00
2018-09-19T19:24:59.082Z,3.50
2018-09-19T19:26:30.911Z,3.60
2018-09-19T19:29:33.884Z,4.50
2018-09-19T19:31:05.583Z,4.10
2018-09-19T19:32:37.250Z,5.40
2018-09-19T19:34:08.780Z,5.40
2018-09-19T19:35:40.400Z,5.30
2018-09-19T19:37:11.774Z,4.80
2018-09-19T19:38:43.520Z,5.30
2018-09-19T19:40:15.048Z,5.40
2018-09-19T19:43:18.136Z,5.80
2018-09-19T19:44:49.897Z,6.10
2018-09-19T19:46:21.177Z,5.70
2018-09-19T19:47:52.798Z,5.00
2018-09-19T19:49:24.883Z,5.30
2018-09-19T19:50:56.200Z,5.20
2018-09-19T19:53:59.566Z,5.20
2018-09-19T19:55:31.331Z,4.90
2018-09-19T19:57:02.247Z,4.80
2018-09-19T19:58:34.110Z,5.10
2018-09-19T20:00:05.381Z,5.40
2018-09-19T20:01:37.254Z,5.60
2018-09-19T20:03:08.928Z,4.90
2018-09-19T20:07:43.889Z,5.00
2018-09-19T20:09:14.973Z,5.50
2018-09-19T20:10:46.512Z,5.50
2018-09-19T20:12:18.062Z,5.00
2018-09-19T20:16:53.144Z,5.80
2018-09-19T20:18:24.397Z,5.60
2018-09-19T20:19:55.984Z,5.80
2018-09-19T20:21:28.071Z,4.30
2018-09-19T20:22:59.677Z,5.30
2018-09-19T20:24:30.892Z,6.10
2018-09-19T20:27:34.118Z,4.30
2018-09-19T20:29:05.427Z,4.50
2018-09-19T20:30:37.472Z,4.70
2018-09-19T20:33:40.124Z,4.90
2018-09-19T20:36:43.621Z,4.60
2018-09-19T20:38:15.121Z,4.20
2018-09-19T20:39:46.651Z,4.20
2018-09-19T20:41:18.997Z,4.90
2018-09-19T20:42:49.703Z,5.10
2018-09-19T20:45:52.975Z,4.80
2018-09-19T20:47:24.336Z,4.90
2018-09-19T20:48:55.937Z,5.90
2018-09-19T20:51:59.075Z,5.60
2018-09-19T20:53:30.696Z,5.00
2018-09-19T20:56:33.871Z,4.60
2018-09-19T20:58:05.410Z,5.50
2018-09-19T20:59:36.973Z,4.30
2018-09-19T21:01:08.544Z,5.10
2018-09-19T21:02:40.978Z,5.20
2018-09-19T21:04:11.738Z,5.00
2018-09-19T21:05:43.540Z,5.40
2018-09-19T21:07:14.875Z,5.30
2018-09-19T21:08:46.956Z,4.80
2018-09-19T21:10:18.041Z,5.20
2018-09-19T21:11:49.612Z,5.30
2018-09-19T21:13:21.171Z,4.90
2018-09-19T21:16:24.951Z,5.20
2018-09-19T21:17:55.903Z,5.20
2018-09-19T21:19:27.485Z,5.00
2018-09-19T21:22:30.750Z,4.90
2018-09-19T21:24:02.216Z,4.80
2018-09-19T21:25:33.793Z,4.90
2018-09-19T21:27:05.371Z,5.60
2018-09-19T21:30:08.527Z,5.80
2018-09-19T21:31:40.120Z,5.80
2018-09-19T21:33:11.684Z,5.70
2018-09-19T21:34:43.261Z,5.90
2018-09-19T21:36:14.838Z,6.00
2018-09-19T21:37:46.414Z,5.30
2018-09-19T21:39:17.993Z,6.20
2018-09-19T21:40:49.629Z,6.30
2018-09-19T21:42:21.338Z,6.60
2018-09-19T21:43:52.870Z,6.40
2018-09-19T21:45:24.301Z,6.60
2018-09-19T21:46:55.879Z,7.20
2018-09-19T21:48:27.477Z,7.10
2018-09-19T21:49:59.035Z,7.40
2018-09-19T21:51:30.624Z,8.50
2018-09-19T21:53:02.207Z,9.40
2018-09-19T21:54:33.767Z,8.50
2018-09-19T21:56:05.342Z,9.00
2018-09-19T21:57:36.998Z,9.20
2018-09-19T21:59:08.518Z,10.00
2018-09-19T22:00:41.126Z,10.50
2018-09-19T22:02:11.653Z,9.90
2018-09-19T22:03:43.229Z,10.60
2018-09-19T22:05:14.807Z,10.90
2018-09-19T22:06:46.488Z,12.00
2018-09-19T22:08:17.959Z,12.50
2018-09-19T22:09:49.536Z,12.20
2018-09-19T22:11:21.488Z,12.30
2018-09-19T22:12:52.868Z,12.80
2018-09-19T22:14:24.279Z,13.20
2018-09-19T22:15:55.844Z,13.20
2018-09-19T22:17:27.419Z,12.30